createdAt,value
2023-03-12T00:00:11.832Z,47.38
2023-03-12T00:02:40.150Z,46.92
2023-03-12T00:05:08.421Z,46.70
2023-03-12T00:07:36.436Z,46.78
2023-03-12T00:10:05.712Z,46.68
2023-03-12T00:12:33.459Z,47.14
2023-03-12T00:15:01.763Z,46.88
2023-03-12T00:17:32.107Z,47.28
2023-03-12T00:19:59.787Z,46.81
2023-03-12T00:22:27.462Z,46.99
2023-03-12T00:24:57.669Z,47.49
2023-03-12T00:27:28.319Z,47.25
2023-03-12T00:29:55.969Z,46.52
2023-03-12T00:32:24.765Z,47.32
2023-03-12T00:34:54.871Z,47.11
2023-03-12T00:37:22.623Z,46.61
2023-03-12T00:39:51.033Z,47.05
2023-03-12T00:42:19.250Z,47.05
2023-03-12T00:44:47.138Z,47.49
2023-03-12T00:47:15.490Z,48.02
2023-03-12T00:49:43.166Z,48.18
2023-03-12T00:52:12.390Z,47.70
2023-03-12T00:54:41.348Z,48.28
2023-03-12T00:57:09.020Z,48.52
2023-03-12T00:59:40.232Z,49.82
2023-03-12T01:02:08.504Z,50.28
2023-03-12T01:04:36.440Z,50.77
2023-03-12T01:07:04.191Z,50.87
2023-03-12T01:12:21.641Z,52.32
2023-03-12T01:14:50.166Z,52.26
2023-03-12T01:17:17.830Z,52.53
2023-03-12T01:19:45.530Z,52.35
2023-03-12T01:22:13.700Z,53.65
2023-03-12T01:24:42.736Z,52.76
2023-03-12T01:27:10.379Z,53.30
2023-03-12T01:29:38.580Z,53.91
2023-03-12T01:32:07.059Z,53.77
2023-03-12T01:34:35.480Z,54.19
2023-03-12T01:37:04.014Z,53.72
2023-03-12T01:39:31.643Z,54.80
2023-03-12T01:42:00.939Z,55.04
2023-03-12T01:44:29.111Z,54.02
2023-03-12T01:46:56.772Z,54.78
2023-03-12T01:49:26.873Z,54.30
2023-03-12T01:51:59.506Z,54.50
2023-03-12T01:54:32.834Z,55.33
2023-03-12T01:57:03.913Z,55.39
2023-03-12T01:59:37.143Z,55.79
2023-03-12T02:02:07.048Z,55.52
2023-03-12T02:04:35.739Z,55.70
2023-03-12T02:07:06.202Z,55.48
2023-03-12T02:09:36.364Z,55.93
2023-03-12T02:12:06.197Z,55.67
2023-03-12T02:14:33.955Z,55.97
2023-03-12T02:17:02.294Z,55.68
2023-03-12T02:19:40.096Z,55.63
2023-03-12T02:22:09.479Z,55.69
2023-03-12T02:24:44.479Z,55.43
2023-03-12T02:27:14.592Z,56.12
2023-03-12T02:29:44.445Z,55.82
2023-03-12T02:32:19.214Z,55.63
2023-03-12T02:34:48.040Z,55.63
2023-03-12T02:37:15.776Z,56.02
2023-03-12T02:39:45.920Z,56.37
2023-03-12T02:42:15.516Z,55.49
2023-03-12T02:44:43.746Z,56.61
2023-03-12T02:47:11.858Z,56.13
2023-03-12T02:49:39.490Z,56.01
2023-03-12T02:52:07.418Z,56.40
2023-03-12T02:54:35.652Z,56.26
2023-03-12T02:57:03.303Z,56.30
2023-03-12T02:59:32.318Z,57.05
2023-03-12T03:02:02.410Z,56.79
2023-03-12T03:04:32.093Z,56.60
2023-03-12T03:06:59.936Z,56.91
2023-03-12T03:09:28.762Z,57.07
2023-03-12T03:11:56.428Z,56.59
2023-03-12T03:14:24.276Z,56.69
2023-03-12T03:16:53.851Z,56.64
2023-03-12T03:19:21.525Z,57.08
2023-03-12T03:21:49.243Z,56.97
2023-03-12T03:24:18.817Z,57.75
2023-03-12T03:26:46.481Z,56.47
2023-03-12T03:29:14.151Z,57.60
2023-03-12T03:31:42.455Z,57.33
2023-03-12T03:34:11.459Z,57.06
2023-03-12T03:36:39.090Z,56.82
2023-03-12T03:39:07.351Z,56.96
2023-03-12T03:41:35.101Z,56.87
2023-03-12T03:44:02.743Z,56.96
2023-03-12T03:46:31.009Z,57.27
2023-03-12T03:48:58.661Z,57.60
2023-03-12T03:51:27.796Z,57.27
2023-03-12T03:53:55.912Z,57.46
2023-03-12T03:56:23.587Z,57.93
2023-03-12T03:58:51.241Z,57.72
2023-03-12T04:01:19.565Z,57.25
2023-03-12T04:03:47.524Z,58.43
2023-03-12T04:06:15.164Z,58.57
2023-03-12T04:08:44.783Z,57.69
2023-03-12T04:11:14.738Z,58.03
2023-03-12T04:13:42.743Z,57.71
2023-03-12T04:16:11.331Z,58.92
2023-03-12T04:18:40.079Z,59.00
2023-03-12T04:21:09.358Z,57.99
2023-03-12T04:23:37.821Z,58.65
2023-03-12T04:26:07.844Z,58.61
2023-03-12T04:28:36.259Z,59.51
2023-03-12T04:31:08.023Z,60.13
2023-03-12T04:33:38.796Z,59.08
2023-03-12T04:36:08.702Z,59.07
2023-03-12T04:38:36.619Z,59.19
2023-03-12T04:41:06.109Z,59.92
2023-03-12T04:43:36.139Z,60.27
2023-03-12T04:46:03.836Z,59.57
2023-03-12T04:48:31.472Z,60.29
2023-03-12T04:50:59.675Z,60.29
2023-03-12T04:53:27.837Z,60.77
2023-03-12T04:55:55.592Z,60.85
2023-03-12T04:58:24.621Z,61.00
2023-03-12T05:00:53.658Z,61.43
2023-03-12T05:03:21.345Z,61.69
2023-03-12T05:05:49.567Z,60.92
2023-03-12T05:08:17.230Z,61.24
2023-03-12T05:10:45.835Z,62.04
2023-03-12T05:13:15.636Z,61.97
2023-03-12T05:15:43.464Z,62.24
2023-03-12T05:18:12.772Z,62.31
2023-03-12T05:20:41.436Z,61.85
2023-03-12T05:23:09.150Z,61.93
2023-03-12T05:25:40.019Z,62.93
2023-03-12T05:28:08.306Z,62.77
2023-03-12T05:30:36.063Z,63.06
2023-03-12T05:33:03.885Z,63.43
2023-03-12T05:35:33.370Z,63.32
2023-03-12T05:38:01.105Z,63.34
2023-03-12T05:40:28.769Z,63.60
2023-03-12T05:42:56.951Z,64.11
2023-03-12T05:45:24.602Z,64.28
2023-03-12T05:47:52.266Z,64.43
2023-03-12T05:50:20.521Z,64.85
2023-03-12T05:52:49.583Z,64.69
2023-03-12T05:55:17.693Z,65.57
2023-03-12T05:57:46.342Z,65.54
2023-03-12T06:00:15.791Z,66.15
2023-03-12T06:02:43.951Z,65.72
2023-03-12T06:05:12.585Z,65.21
2023-03-12T06:07:40.304Z,65.14
2023-03-12T06:10:11.264Z,66.52
2023-03-12T06:12:40.040Z,66.36
2023-03-12T06:15:08.564Z,66.45
2023-03-12T06:17:36.216Z,67.72
2023-03-12T06:20:04.637Z,68.19
2023-03-12T06:22:32.284Z,68.03
2023-03-12T06:24:59.997Z,67.12
2023-03-12T06:27:29.585Z,67.97
2023-03-12T06:29:57.258Z,70.04
2023-03-12T06:32:26.054Z,69.96
2023-03-12T06:34:54.361Z,69.34
2023-03-12T06:37:22.097Z,70.09
2023-03-12T06:39:49.767Z,69.96
2023-03-12T06:42:19.008Z,69.51
2023-03-12T06:44:48.164Z,69.43
2023-03-12T06:47:17.584Z,70.15
2023-03-12T06:49:45.880Z,69.56
2023-03-12T06:52:13.562Z,70.00
2023-03-12T06:54:41.268Z,69.27
2023-03-12T06:57:09.512Z,70.34
2023-03-12T06:59:37.403Z,70.96
2023-03-12T07:02:06.816Z,70.25
2023-03-12T07:04:35.043Z,71.73
2023-03-12T07:07:03.384Z,71.51
2023-03-12T07:09:31.227Z,71.93
2023-03-12T07:11:59.418Z,71.55
2023-03-12T07:14:27.096Z,71.21
2023-03-12T07:16:56.084Z,71.13
2023-03-12T07:19:25.738Z,70.77
2023-03-12T07:21:53.391Z,70.34
2023-03-12T07:24:21.045Z,71.15
2023-03-12T07:26:49.178Z,71.62
2023-03-12T07:29:16.840Z,71.82
2023-03-12T07:31:44.555Z,71.52
2023-03-12T07:34:12.878Z,71.06
2023-03-12T07:36:42.344Z,72.13
2023-03-12T07:39:10.197Z,71.83
2023-03-12T07:41:39.615Z,71.85
2023-03-12T07:44:07.443Z,71.24
2023-03-12T07:46:35.183Z,71.93
2023-03-12T07:49:03.539Z,71.15
2023-03-12T07:51:31.525Z,71.40
2023-03-12T07:54:00.581Z,71.83
2023-03-12T07:56:29.289Z,71.89
2023-03-12T07:58:57.054Z,71.97
2023-03-12T08:01:25.439Z,71.82
2023-03-12T08:03:53.620Z,71.89
2023-03-12T08:06:21.778Z,72.21
2023-03-12T08:08:49.552Z,71.76
2023-03-12T08:11:19.395Z,71.82
2023-03-12T08:13:47.139Z,72.09
2023-03-12T08:16:15.617Z,72.08
2023-03-12T08:18:44.629Z,72.10
2023-03-12T08:21:16.004Z,71.63
2023-03-12T08:23:44.324Z,71.83
2023-03-12T08:26:12.465Z,72.53
2023-03-12T08:28:41.677Z,72.28
2023-03-12T08:31:09.494Z,71.87
2023-03-12T08:33:41.654Z,72.13
2023-03-12T08:36:09.864Z,72.68
2023-03-12T08:38:37.782Z,72.25
2023-03-12T08:41:06.053Z,72.34
2023-03-12T08:43:33.692Z,72.24
2023-03-12T08:46:04.499Z,72.17
2023-03-12T08:48:33.752Z,72.28
2023-03-12T08:51:04.233Z,72.71
2023-03-12T08:53:32.988Z,72.39
2023-03-12T08:56:01.242Z,72.38
2023-03-12T08:58:29.861Z,72.18
2023-03-12T09:00:58.006Z,72.10
2023-03-12T09:03:28.292Z,72.86
2023-03-12T09:06:07.442Z,72.95
2023-03-12T09:08:35.650Z,72.20
2023-03-12T09:11:03.882Z,72.74
2023-03-12T09:13:50.715Z,72.36
2023-03-12T09:16:19.888Z,72.57
2023-03-12T09:18:49.250Z,71.65
2023-03-12T09:21:16.923Z,71.48
2023-03-12T09:23:44.612Z,71.97
2023-03-12T09:26:13.029Z,71.91
2023-03-12T09:28:40.760Z,71.51
2023-03-12T09:31:08.977Z,71.26
2023-03-12T09:33:36.893Z,70.40
2023-03-12T09:36:06.582Z,71.11
2023-03-12T09:38:35.925Z,70.58
2023-03-12T09:41:05.324Z,70.97
2023-03-12T09:43:38.410Z,70.87
2023-03-12T09:46:13.623Z,70.05
2023-03-12T09:48:42.636Z,69.01
2023-03-12T09:51:21.149Z,69.83
2023-03-12T09:53:53.573Z,69.75
2023-03-12T09:56:23.423Z,69.24
2023-03-12T09:58:55.146Z,68.73
2023-03-12T10:01:36.503Z,69.52
2023-03-12T10:04:25.717Z,69.04
2023-03-12T10:07:02.046Z,68.72
2023-03-12T10:10:03.228Z,68.13
2023-03-12T10:12:39.166Z,68.08
2023-03-12T10:15:18.871Z,68.19
2023-03-12T10:17:59.665Z,67.20
2023-03-12T10:20:48.097Z,68.19
2023-03-12T10:23:31.413Z,67.73
2023-03-12T10:26:04.570Z,67.06
2023-03-12T10:28:37.710Z,67.52
2023-03-12T10:31:08.356Z,66.83
2023-03-12T10:33:45.926Z,67.02
2023-03-12T10:36:20.652Z,66.27
2023-03-12T10:38:55.235Z,66.26
2023-03-12T10:44:36.045Z,66.15
2023-03-12T10:47:37.299Z,65.86
2023-03-12T10:50:20.141Z,65.07
2023-03-12T10:52:49.265Z,65.66
2023-03-12T10:55:26.275Z,65.95
2023-03-12T10:57:54.349Z,64.90
2023-03-12T11:00:24.410Z,65.32
2023-03-12T11:03:01.341Z,65.08
2023-03-12T11:05:31.206Z,65.60
2023-03-12T11:08:02.298Z,65.38
2023-03-12T11:10:43.488Z,65.13
2023-03-12T11:13:26.634Z,64.45
2023-03-12T11:15:55.386Z,64.23
2023-03-12T11:18:33.388Z,63.87
2023-03-12T11:21:17.522Z,63.44
2023-03-12T11:23:48.803Z,63.20
2023-03-12T11:26:21.322Z,63.03
2023-03-12T11:28:51.320Z,62.82
2023-03-12T11:31:26.845Z,62.81
2023-03-12T11:33:59.240Z,62.42
2023-03-12T11:36:45.145Z,63.03
2023-03-12T11:39:25.633Z,63.48
2023-03-12T11:42:14.091Z,62.92
2023-03-12T11:44:56.123Z,62.57
2023-03-12T11:47:36.685Z,62.54
2023-03-12T11:50:15.078Z,62.50
2023-03-12T11:52:57.279Z,62.61
2023-03-12T11:55:44.032Z,61.74
2023-03-12T11:58:31.610Z,61.21
2023-03-12T12:01:07.295Z,61.03
2023-03-12T12:03:47.363Z,60.73
2023-03-12T12:06:23.695Z,59.81
2023-03-12T12:09:03.078Z,60.52
2023-03-12T12:11:45.625Z,60.11
2023-03-12T12:14:29.101Z,60.63
2023-03-12T12:17:10.949Z,59.47
2023-03-12T12:19:52.178Z,60.07
2023-03-12T12:22:35.864Z,59.95
2023-03-12T12:25:25.376Z,59.90
2023-03-12T12:27:58.783Z,59.59
2023-03-12T12:30:37.737Z,60.09
2023-03-12T12:33:22.716Z,58.73
2023-03-12T12:35:51.326Z,58.54
2023-03-12T12:38:30.350Z,58.29
2023-03-12T12:41:03.079Z,58.14
2023-03-12T12:43:35.656Z,58.05
2023-03-12T12:46:08.164Z,56.99
2023-03-12T12:48:39.724Z,57.18
2023-03-12T12:51:09.234Z,57.28
2023-03-12T12:53:45.556Z,56.79
2023-03-12T12:56:21.343Z,57.02
2023-03-12T12:59:15.584Z,56.95
2023-03-12T13:01:45.260Z,57.36
2023-03-12T13:04:14.472Z,57.26
2023-03-12T13:07:05.122Z,56.64
2023-03-12T13:09:39.602Z,56.43
2023-03-12T13:12:17.184Z,55.91
2023-03-12T13:14:48.013Z,56.15
2023-03-12T13:17:32.836Z,56.63
2023-03-12T13:20:10.908Z,56.50
2023-03-12T13:23:03.791Z,55.23
2023-03-12T13:25:52.235Z,55.78
2023-03-12T13:28:37.752Z,56.32
2023-03-12T13:31:36.347Z,56.04
2023-03-12T13:34:53.492Z,56.05
2023-03-12T13:37:43.973Z,56.25
2023-03-12T13:40:37.132Z,55.26
2023-03-12T13:43:12.603Z,56.24
2023-03-12T13:45:59.447Z,54.51
2023-03-12T13:48:28.091Z,55.90
2023-03-12T13:50:59.643Z,55.00
2023-03-12T13:53:34.205Z,55.82
2023-03-12T13:56:05.720Z,55.53
2023-03-12T13:58:42.621Z,54.64
2023-03-12T14:01:16.817Z,54.87
2023-03-12T14:03:49.636Z,54.32
2023-03-12T14:06:21.882Z,54.08
2023-03-12T14:09:02.508Z,54.50
2023-03-12T14:11:41.193Z,54.51
2023-03-12T14:14:28.781Z,53.26
2023-03-12T14:16:59.110Z,53.21
2023-03-12T14:19:29.180Z,52.79
2023-03-12T14:22:00.984Z,53.04
2023-03-12T14:24:34.494Z,53.76
2023-03-12T14:27:04.008Z,53.00
2023-03-12T14:29:37.872Z,53.00
2023-03-12T14:32:10.170Z,52.61
2023-03-12T14:34:42.815Z,53.04
2023-03-12T14:37:17.193Z,53.15
2023-03-12T14:39:50.987Z,52.77
2023-03-12T14:42:26.462Z,53.43
2023-03-12T14:45:00.645Z,52.81
2023-03-12T14:47:29.261Z,52.68
2023-03-12T14:49:58.319Z,52.11
2023-03-12T14:52:29.880Z,52.37
2023-03-12T14:55:01.443Z,52.44
2023-03-12T14:57:29.351Z,52.40
2023-03-12T14:59:59.232Z,51.86
2023-03-12T15:02:28.113Z,52.15
2023-03-12T15:04:58.494Z,52.26
2023-03-12T15:07:30.694Z,52.18
2023-03-12T15:09:59.837Z,52.56
2023-03-12T15:12:32.884Z,52.83
2023-03-12T15:15:06.877Z,52.70
2023-03-12T15:17:35.807Z,52.91
2023-03-12T15:20:09.089Z,52.83
2023-03-12T15:22:37.669Z,52.21
2023-03-12T15:25:46.281Z,51.92
2023-03-12T15:28:29.000Z,52.25
2023-03-12T15:31:12.721Z,52.19
2023-03-12T15:33:42.290Z,52.12
2023-03-12T15:36:26.474Z,52.25
2023-03-12T15:38:56.599Z,52.20
2023-03-12T15:41:29.067Z,52.09
2023-03-12T15:43:58.341Z,52.34
2023-03-12T15:46:27.520Z,52.28
2023-03-12T15:48:57.709Z,52.25
2023-03-12T15:51:32.450Z,52.47
2023-03-12T15:54:05.833Z,52.63
2023-03-12T15:56:36.643Z,52.86
2023-03-12T15:59:20.116Z,52.78
2023-03-12T16:01:49.338Z,52.81
2023-03-12T16:04:17.454Z,53.57
2023-03-12T16:06:48.881Z,52.82
2023-03-12T16:15:01.670Z,52.75
2023-03-12T16:17:29.349Z,52.76
2023-03-12T16:19:57.003Z,53.10
2023-03-12T16:22:25.224Z,52.95
2023-03-12T16:24:52.895Z,52.70
2023-03-12T16:27:32.129Z,52.99
2023-03-12T16:30:01.285Z,53.02
2023-03-12T16:32:29.560Z,53.70
2023-03-12T16:34:57.802Z,53.44
2023-03-12T16:37:26.215Z,53.47
2023-03-12T16:39:53.862Z,53.34
2023-03-12T16:42:23.020Z,53.50
2023-03-12T16:44:50.734Z,53.50
2023-03-12T16:47:18.437Z,53.90
2023-03-12T16:49:46.205Z,53.28
2023-03-12T16:52:19.786Z,53.13
2023-03-12T16:54:49.795Z,53.35
2023-03-12T16:57:27.396Z,53.62
2023-03-12T16:59:55.585Z,53.49
2023-03-12T17:02:23.464Z,53.90
2023-03-12T17:04:53.192Z,53.62
2023-03-12T17:07:20.850Z,53.57
2023-03-12T17:09:48.598Z,53.60
2023-03-12T17:12:23.585Z,53.89
2023-03-12T17:14:52.803Z,53.90
2023-03-12T17:17:23.083Z,54.66
2023-03-12T17:19:52.501Z,54.01
2023-03-12T17:22:20.609Z,54.04
2023-03-12T17:24:48.682Z,54.35
2023-03-12T17:27:16.819Z,53.95
2023-03-12T17:29:44.433Z,54.54
2023-03-12T17:32:13.398Z,54.18
2023-03-12T17:34:41.303Z,54.52
2023-03-12T17:37:09.334Z,54.65
2023-03-12T17:39:37.212Z,54.80
2023-03-12T17:42:05.619Z,54.42
2023-03-12T17:44:34.671Z,54.64
2023-03-12T17:47:03.260Z,54.91
2023-03-12T17:49:32.428Z,54.95
2023-03-12T17:52:02.690Z,54.42
2023-03-12T17:54:30.357Z,54.46
2023-03-12T17:56:58.544Z,54.99
2023-03-12T17:59:26.317Z,55.19
2023-03-12T18:01:53.979Z,54.72
2023-03-12T18:04:21.703Z,54.33
2023-03-12T18:06:50.776Z,54.87
2023-03-12T18:09:18.672Z,54.80
2023-03-12T18:11:47.117Z,54.56
2023-03-12T18:14:14.766Z,55.18
2023-03-12T18:16:42.472Z,55.24
2023-03-12T18:19:10.612Z,54.72
2023-03-12T18:21:38.255Z,55.34
2023-03-12T18:24:13.966Z,55.38
2023-03-12T18:26:42.884Z,55.08
2023-03-12T18:29:10.612Z,55.24
2023-03-12T18:31:38.457Z,55.39
2023-03-12T18:34:06.716Z,54.85
2023-03-12T18:36:34.347Z,55.57
2023-03-12T18:39:04.474Z,55.25
2023-03-12T18:41:33.958Z,55.39
2023-03-12T18:44:01.604Z,54.66
2023-03-12T18:46:29.574Z,54.63
2023-03-12T18:48:57.689Z,55.04
2023-03-12T18:51:25.454Z,54.85
2023-03-12T18:53:53.103Z,54.51
2023-03-12T18:56:21.267Z,54.63
2023-03-12T18:58:50.314Z,56.42
2023-03-12T19:01:17.999Z,54.70
2023-03-12T19:03:46.001Z,54.77
2023-03-12T19:06:15.975Z,54.86
2023-03-12T19:08:44.094Z,54.16
2023-03-12T19:11:13.857Z,54.28
2023-03-12T19:13:42.014Z,54.73
2023-03-12T19:16:12.865Z,54.31
2023-03-12T19:18:41.115Z,54.56
2023-03-12T19:21:09.403Z,54.09
2023-03-12T19:23:37.073Z,54.07
2023-03-12T19:26:05.242Z,54.44
2023-03-12T19:28:33.299Z,53.99
2023-03-12T19:31:01.560Z,54.56
2023-03-12T19:33:30.980Z,54.38
2023-03-12T19:35:58.835Z,54.62
2023-03-12T19:38:27.254Z,54.41
2023-03-12T19:40:56.734Z,54.21
2023-03-12T19:43:24.930Z,54.32
2023-03-12T19:45:54.686Z,54.63
2023-03-12T19:48:25.350Z,54.40
2023-03-12T19:50:55.910Z,53.80
2023-03-12T19:53:24.354Z,54.20
2023-03-12T19:55:53.092Z,54.60
2023-03-12T19:58:20.737Z,54.64
2023-03-12T20:00:49.515Z,54.31
2023-03-12T20:03:17.303Z,54.91
2023-03-12T20:05:45.502Z,54.40
2023-03-12T20:08:14.548Z,54.83
2023-03-12T20:10:42.458Z,54.82
2023-03-12T20:13:12.907Z,55.19
2023-03-12T20:15:40.637Z,54.51
2023-03-12T20:18:08.486Z,54.97
2023-03-12T20:20:36.169Z,54.94
2023-03-12T20:23:03.841Z,54.85
2023-03-12T20:25:33.410Z,54.45
2023-03-12T20:28:01.221Z,54.92
2023-03-12T20:30:28.892Z,54.91
2023-03-12T20:32:56.643Z,54.70
2023-03-12T20:35:24.415Z,54.63
2023-03-12T20:37:52.141Z,54.86
2023-03-12T20:40:20.393Z,55.05
2023-03-12T20:42:49.408Z,54.92
2023-03-12T20:45:17.318Z,55.62
2023-03-12T20:47:45.593Z,55.64
2023-03-12T20:50:13.448Z,55.34
2023-03-12T20:52:41.199Z,56.07
2023-03-12T20:55:09.950Z,55.56
2023-03-12T20:57:37.647Z,55.80
2023-03-12T21:00:08.373Z,56.11
2023-03-12T21:02:36.224Z,56.08
2023-03-12T21:05:04.058Z,55.86
2023-03-12T21:07:31.723Z,55.91
2023-03-12T21:09:59.964Z,55.94
2023-03-12T21:12:28.702Z,56.17
2023-03-12T21:15:06.409Z,56.00
2023-03-12T21:17:37.794Z,55.71
2023-03-12T21:20:09.750Z,55.94
2023-03-12T21:22:38.641Z,56.38
2023-03-12T21:25:07.561Z,56.29
2023-03-12T21:27:48.015Z,56.09
2023-03-12T21:30:18.050Z,56.03
2023-03-12T21:32:47.294Z,56.21
2023-03-12T21:35:14.926Z,56.11
2023-03-12T21:37:42.575Z,56.11
2023-03-12T21:40:12.982Z,56.29
2023-03-12T21:42:41.816Z,55.99
2023-03-12T21:45:11.135Z,56.63
2023-03-12T21:47:39.047Z,56.32
2023-03-12T21:50:09.092Z,56.11
2023-03-12T21:52:42.977Z,56.74
2023-03-12T21:55:11.870Z,56.44
2023-03-12T21:57:39.714Z,56.63
2023-03-12T22:00:13.905Z,56.70
2023-03-12T22:02:42.348Z,56.45
2023-03-12T22:05:11.961Z,56.62
2023-03-12T22:07:39.450Z,56.83
2023-03-12T22:10:12.189Z,57.24
2023-03-12T22:12:40.416Z,57.47
2023-03-12T22:15:09.420Z,57.79
2023-03-12T22:17:37.258Z,58.74
2023-03-12T22:20:07.745Z,58.88
2023-03-12T22:22:37.176Z,58.85
2023-03-12T22:25:05.250Z,59.06
2023-03-12T22:27:32.951Z,60.07
2023-03-12T22:30:01.234Z,59.84
2023-03-12T22:32:29.071Z,60.29
2023-03-12T22:34:56.762Z,60.49
2023-03-12T22:37:24.507Z,61.00
2023-03-12T22:39:53.536Z,61.44
2023-03-12T22:42:21.193Z,61.68
2023-03-12T22:44:49.413Z,62.06
2023-03-12T22:47:17.094Z,61.75
2023-03-12T22:49:46.580Z,62.70
2023-03-12T22:52:14.266Z,62.15
2023-03-12T22:54:42.042Z,62.86
2023-03-12T22:57:11.093Z,63.31
2023-03-12T22:59:38.777Z,63.36
2023-03-12T23:02:06.585Z,63.62
2023-03-12T23:04:34.368Z,63.45
2023-03-12T23:07:14.824Z,63.78
2023-03-12T23:09:45.122Z,63.72
2023-03-12T23:12:14.806Z,64.28
2023-03-12T23:14:42.309Z,63.52
2023-03-12T23:17:10.340Z,63.54
2023-03-12T23:19:38.547Z,64.49
2023-03-12T23:22:07.584Z,64.16
2023-03-12T23:24:35.527Z,65.14
2023-03-12T23:27:03.518Z,65.09
2023-03-12T23:29:33.055Z,66.42
2023-03-12T23:32:00.796Z,65.95
2023-03-12T23:34:29.294Z,66.19
2023-03-12T23:36:57.115Z,66.70
2023-03-12T23:39:24.882Z,66.46
2023-03-12T23:41:53.241Z,66.13
2023-03-12T23:44:20.883Z,66.55
2023-03-12T23:46:49.961Z,67.13
2023-03-12T23:49:18.272Z,67.00
2023-03-12T23:51:46.645Z,66.63
2023-03-12T23:54:14.348Z,66.90
2023-03-12T23:56:42.622Z,67.62
2023-03-12T23:59:12.092Z,67.36
